createdAt,value
2017-05-01T00:00:37.004Z,43.80
2017-05-01T00:03:06.125Z,43.20
2017-05-01T00:05:34.423Z,43.80
2017-05-01T00:08:02.734Z,44.00
2017-05-01T00:10:31.104Z,44.00
2017-05-01T00:12:59.412Z,43.30
2017-05-01T00:15:27.712Z,44.00
2017-05-01T00:17:56.061Z,43.80
2017-05-01T00:20:24.362Z,44.10
2017-05-01T00:22:52.668Z,43.90
2017-05-01T00:25:21.185Z,44.40
2017-05-01T00:27:49.489Z,43.90
2017-05-01T00:30:17.792Z,43.80
2017-05-01T00:32:46.145Z,44.00
2017-05-01T00:35:15.190Z,44.40
2017-05-01T00:37:43.497Z,44.30
2017-05-01T00:40:11.857Z,44.20
2017-05-01T00:42:40.160Z,44.30
2017-05-01T00:45:08.460Z,45.00
2017-05-01T00:47:37.773Z,44.20
2017-05-01T00:50:06.076Z,44.80
2017-05-01T00:52:34.388Z,44.30
2017-05-01T00:55:02.766Z,44.10
2017-05-01T00:57:31.093Z,44.40
2017-05-01T00:59:59.397Z,44.40
2017-05-01T01:02:27.745Z,44.90
2017-05-01T01:04:56.049Z,44.80
2017-05-01T01:07:24.352Z,44.30
2017-05-01T01:10:08.048Z,45.20
2017-05-01T01:12:36.382Z,45.60
2017-05-01T01:15:04.705Z,45.30
2017-05-01T01:17:33.270Z,44.60
2017-05-01T01:20:02.323Z,44.40
2017-05-01T01:22:30.637Z,44.40
2017-05-01T01:24:59.371Z,44.50
2017-05-01T01:27:28.416Z,44.70
2017-05-01T01:29:56.716Z,45.20
2017-05-01T01:32:25.809Z,44.60
2017-05-01T01:34:54.121Z,44.50
2017-05-01T01:37:22.420Z,45.00
2017-05-01T01:39:51.508Z,44.90
2017-05-01T01:42:19.817Z,44.60
2017-05-01T01:44:48.152Z,44.80
2017-05-01T01:47:16.497Z,44.50
2017-05-01T01:49:45.538Z,44.90
2017-05-01T01:52:13.841Z,44.90
2017-05-01T01:54:42.493Z,44.30
2017-05-01T01:57:11.531Z,45.30
2017-05-01T01:59:39.832Z,44.70
2017-05-01T02:02:08.187Z,44.60
2017-05-01T02:04:37.244Z,44.70
2017-05-01T02:07:05.548Z,44.30
2017-05-01T02:09:34.644Z,44.80
2017-05-01T02:12:03.030Z,45.00
2017-05-01T02:14:31.344Z,45.20
2017-05-01T02:17:00.711Z,45.60
2017-05-01T02:19:29.013Z,45.30
2017-05-01T02:21:57.315Z,45.30
2017-05-01T02:24:25.665Z,45.30
2017-05-01T02:26:53.965Z,45.20
2017-05-01T02:29:22.273Z,44.90
2017-05-01T02:31:50.768Z,45.20
2017-05-01T02:34:19.070Z,45.10
2017-05-01T02:36:48.116Z,45.30
2017-05-01T02:39:16.476Z,45.30
2017-05-01T02:41:44.780Z,45.30
2017-05-01T02:44:13.081Z,45.50
2017-05-01T02:46:41.708Z,45.50
2017-05-01T02:49:10.752Z,45.50
2017-05-01T02:51:39.048Z,45.70
2017-05-01T02:54:08.433Z,45.70
2017-05-01T02:56:37.481Z,46.10
2017-05-01T02:59:05.788Z,46.10
2017-05-01T03:01:34.174Z,46.10
2017-05-01T03:04:02.496Z,45.80
2017-05-01T03:06:31.586Z,45.70
2017-05-01T03:09:00.680Z,45.90
2017-05-01T03:11:29.004Z,45.10
2017-05-01T03:13:57.309Z,45.50
2017-05-01T03:16:25.660Z,44.90
2017-05-01T03:18:54.713Z,45.30
2017-05-01T03:21:23.021Z,44.50
2017-05-01T03:23:51.388Z,43.80
2017-05-01T03:26:19.693Z,43.80
2017-05-01T03:28:48.001Z,44.40
2017-05-01T03:31:16.353Z,45.10
2017-05-01T03:33:44.652Z,44.40
2017-05-01T03:36:12.953Z,44.50
2017-05-01T03:38:41.300Z,44.40
2017-05-01T03:41:09.600Z,44.00
2017-05-01T03:43:38.641Z,44.20
2017-05-01T03:46:07.250Z,44.40
2017-05-01T03:48:35.569Z,44.40
2017-05-01T03:51:03.881Z,44.50
2017-05-01T03:53:32.245Z,44.20
2017-05-01T03:56:00.543Z,44.90
2017-05-01T03:58:28.849Z,45.00
2017-05-01T04:00:58.220Z,45.20
2017-05-01T04:03:26.520Z,45.30
2017-05-01T04:05:54.832Z,45.20
2017-05-01T04:08:23.188Z,45.20
2017-05-01T04:10:51.501Z,44.80
2017-05-01T04:13:19.863Z,45.10
2017-05-01T04:15:48.415Z,45.10
2017-05-01T04:18:16.749Z,44.80
2017-05-01T04:20:45.044Z,44.80
2017-05-01T04:23:14.397Z,45.20
2017-05-01T04:25:42.701Z,45.60
2017-05-01T04:28:11.745Z,45.50
2017-05-01T04:30:40.092Z,45.40
2017-05-01T04:33:08.406Z,46.30
2017-05-01T04:35:36.726Z,46.60
2017-05-01T04:38:05.089Z,47.70
2017-05-01T04:40:33.426Z,47.90
2017-05-01T04:43:01.744Z,49.40
2017-05-01T04:45:30.872Z,50.30
2017-05-01T04:47:59.181Z,52.70
2017-05-01T04:50:27.495Z,53.30
2017-05-01T04:52:55.844Z,53.00
2017-05-01T04:55:24.152Z,53.00
2017-05-01T04:57:52.460Z,54.80
2017-05-01T05:00:21.113Z,53.80
2017-05-01T05:02:50.168Z,52.70
2017-05-01T05:05:18.472Z,53.50
2017-05-01T05:07:46.821Z,55.00
2017-05-01T05:10:15.863Z,54.10
2017-05-01T05:12:44.168Z,55.00
2017-05-01T05:15:12.514Z,56.90
2017-05-01T05:17:41.560Z,58.80
2017-05-01T05:20:09.871Z,59.30
2017-05-01T05:22:38.220Z,61.80
2017-05-01T05:25:07.269Z,62.60
2017-05-01T05:27:35.593Z,62.50
2017-05-01T05:30:03.957Z,62.60
2017-05-01T05:32:32.289Z,62.30
2017-05-01T05:35:01.341Z,63.20
2017-05-01T05:37:29.932Z,63.60
2017-05-01T05:39:58.238Z,63.90
2017-05-01T05:42:26.545Z,63.50
2017-05-01T05:44:54.957Z,63.60
2017-05-01T05:47:23.269Z,62.50
2017-05-01T05:49:51.581Z,63.30
2017-05-01T05:52:19.948Z,63.90
2017-05-01T05:54:48.252Z,64.40
2017-05-01T05:57:16.557Z,66.10
2017-05-01T05:59:45.169Z,67.00
2017-05-01T06:02:13.476Z,68.90
2017-05-01T06:04:41.784Z,69.00
2017-05-01T06:07:10.136Z,69.60
2017-05-01T06:09:38.436Z,69.80
2017-05-01T06:12:06.744Z,71.90
2017-05-01T06:14:35.800Z,71.90
2017-05-01T06:17:04.853Z,72.40
2017-05-01T06:19:33.173Z,72.00
2017-05-01T06:22:01.817Z,72.10
2017-05-01T06:24:30.120Z,71.90
2017-05-01T06:26:58.429Z,72.40
2017-05-01T06:29:27.524Z,73.40
2017-05-01T06:31:55.828Z,74.20
2017-05-01T06:34:24.132Z,74.40
2017-05-01T06:36:52.488Z,73.50
2017-05-01T06:39:20.792Z,74.70
2017-05-01T06:41:48.341Z,74.70
2017-05-01T06:44:17.074Z,75.80
2017-05-01T06:46:46.120Z,75.90
2017-05-01T06:49:14.428Z,75.60
2017-05-01T06:51:42.777Z,76.80
2017-05-01T06:54:11.085Z,77.70
2017-05-01T06:56:39.393Z,78.20
2017-05-01T06:59:07.748Z,77.90
2017-05-01T07:01:36.060Z,78.90
2017-05-01T07:04:04.374Z,78.70
2017-05-01T07:06:32.753Z,78.30
2017-05-01T07:09:01.813Z,78.40
2017-05-01T07:11:30.116Z,78.20
2017-05-01T07:13:58.828Z,77.90
2017-05-01T07:16:27.129Z,78.40
2017-05-01T07:18:56.173Z,78.20
2017-05-01T07:21:24.664Z,77.30
2017-05-01T07:23:53.036Z,78.10
2017-05-01T07:26:21.345Z,78.30
2017-05-01T07:28:49.869Z,78.60
2017-05-01T07:31:18.916Z,78.80
2017-05-01T07:33:47.217Z,79.00
2017-05-01T07:36:15.884Z,80.20
2017-05-01T07:38:44.934Z,80.50
2017-05-01T07:41:13.241Z,78.60
2017-05-01T07:43:41.628Z,80.10
2017-05-01T07:46:09.928Z,80.20
2017-05-01T07:48:38.233Z,79.30
2017-05-01T07:51:06.585Z,78.00
2017-05-01T07:53:34.896Z,78.20
2017-05-01T07:56:03.218Z,78.30
2017-05-01T07:58:31.586Z,79.00
2017-05-01T08:00:59.897Z,78.10
2017-05-01T08:03:28.205Z,78.00
2017-05-01T08:05:56.556Z,77.70
2017-05-01T08:08:24.864Z,79.90
2017-05-01T08:10:53.164Z,78.40
2017-05-01T08:13:22.257Z,78.60
2017-05-01T08:15:51.313Z,79.10
2017-05-01T08:18:19.624Z,79.10
2017-05-01T08:20:47.976Z,77.50
2017-05-01T08:23:16.280Z,78.40
2017-05-01T08:25:44.593Z,78.70
2017-05-01T08:28:12.949Z,77.20
2017-05-01T08:30:41.360Z,77.90
2017-05-01T08:33:09.666Z,78.30
2017-05-01T08:35:38.784Z,76.70
2017-05-01T08:38:07.097Z,77.80
2017-05-01T08:40:35.413Z,75.10
2017-05-01T08:43:04.061Z,76.90
2017-05-01T08:45:32.382Z,77.50
2017-05-01T08:48:00.688Z,76.20
2017-05-01T08:50:29.044Z,76.20
2017-05-01T08:52:57.349Z,77.20
2017-05-01T08:55:25.756Z,75.00
2017-05-01T08:57:54.853Z,75.10
2017-05-01T09:00:23.160Z,77.70
2017-05-01T09:02:51.477Z,76.20
2017-05-01T09:05:19.833Z,77.90
2017-05-01T09:07:48.142Z,77.80
2017-05-01T09:10:16.452Z,76.30
2017-05-01T09:12:45.547Z,77.60
2017-05-01T09:15:13.848Z,76.90
2017-05-01T09:17:42.152Z,76.80
2017-05-01T09:20:11.637Z,75.80
2017-05-01T09:22:40.684Z,76.40
2017-05-01T09:25:08.985Z,77.30
2017-05-01T09:27:37.373Z,78.70
2017-05-01T09:30:05.685Z,76.80
2017-05-01T09:32:33.998Z,76.30
2017-05-01T09:35:02.361Z,76.60
2017-05-01T09:37:30.664Z,76.30
2017-05-01T09:39:58.964Z,76.20
2017-05-01T09:42:28.088Z,76.50
2017-05-01T09:44:56.500Z,74.50
2017-05-01T09:47:25.548Z,76.50
2017-05-01T09:49:54.053Z,75.20
2017-05-01T09:52:22.377Z,77.30
2017-05-01T09:54:50.684Z,77.40
2017-05-01T09:57:19.045Z,74.80
2017-05-01T09:59:47.351Z,76.70
2017-05-01T10:02:15.656Z,77.40
2017-05-01T10:04:44.093Z,75.60
2017-05-01T10:07:12.396Z,74.10
2017-05-01T10:09:40.701Z,73.50
2017-05-01T10:12:09.053Z,73.90
2017-05-01T10:14:37.365Z,74.70
2017-05-01T10:17:06.407Z,75.50
2017-05-01T10:19:34.773Z,74.70
2017-05-01T10:22:03.109Z,74.90
2017-05-01T10:24:31.472Z,76.40
2017-05-01T10:27:00.108Z,76.60
2017-05-01T10:29:28.412Z,73.40
2017-05-01T10:31:56.713Z,74.90
2017-05-01T10:34:25.408Z,77.20
2017-05-01T10:36:54.452Z,75.70
2017-05-01T10:42:16.973Z,77.50
2017-05-01T10:44:45.285Z,76.90
2017-05-01T10:47:14.329Z,76.80
2017-05-01T10:49:43.028Z,77.40
2017-05-01T10:52:12.072Z,77.00
2017-05-01T10:54:40.377Z,78.00
2017-05-01T10:57:08.994Z,78.70
2017-05-01T10:59:37.609Z,78.00
2017-05-01T11:02:06.654Z,79.10
2017-05-01T11:04:35.134Z,80.20
2017-05-01T11:07:03.503Z,79.30
2017-05-01T11:09:32.053Z,80.50
2017-05-01T11:12:00.373Z,78.70
2017-05-01T11:14:28.812Z,80.80
2017-05-01T11:16:57.856Z,81.60
2017-05-01T11:19:26.252Z,79.30
2017-05-01T11:21:55.723Z,78.30
2017-05-01T11:24:24.033Z,81.50
2017-05-01T11:26:52.356Z,81.80
2017-05-01T11:29:21.169Z,81.80
2017-05-01T11:31:49.477Z,83.70
2017-05-01T11:34:17.788Z,81.70
2017-05-01T11:36:46.616Z,81.60
2017-05-01T11:39:14.924Z,80.60
2017-05-01T11:41:43.237Z,82.40
2017-05-01T11:44:11.691Z,78.80
2017-05-01T11:46:39.997Z,78.90
2017-05-01T11:49:09.077Z,80.40
2017-05-01T11:51:37.947Z,81.90
2017-05-01T11:54:06.266Z,80.70
2017-05-01T11:56:34.580Z,80.80
2017-05-01T11:59:03.237Z,80.20
2017-05-01T12:01:32.300Z,80.60
2017-05-01T12:04:00.613Z,81.30
2017-05-01T12:06:29.003Z,82.50
2017-05-01T12:08:57.313Z,81.70
2017-05-01T12:11:26.357Z,80.70
2017-05-01T12:13:54.725Z,80.80
2017-05-01T12:16:23.036Z,80.20
2017-05-01T12:18:51.341Z,80.00
2017-05-01T12:21:19.689Z,80.50
2017-05-01T12:23:47.997Z,79.70
2017-05-01T12:26:17.044Z,80.20
2017-05-01T12:28:45.694Z,78.30
2017-05-01T12:31:14.009Z,76.20
2017-05-01T12:33:43.061Z,76.00
2017-05-01T12:36:11.432Z,79.10
2017-05-01T12:38:39.732Z,79.50
2017-05-01T12:41:08.048Z,77.60
2017-05-01T12:43:36.417Z,77.70
2017-05-01T12:46:04.732Z,79.30
2017-05-01T12:48:33.052Z,80.50
2017-05-01T12:51:02.561Z,80.30
2017-05-01T12:53:30.864Z,78.10
2017-05-01T12:55:59.169Z,76.20
2017-05-01T12:58:27.545Z,74.70
2017-05-01T13:00:56.620Z,74.90
2017-05-01T13:03:25.671Z,75.00
2017-05-01T13:05:54.044Z,74.70
2017-05-01T13:08:22.357Z,76.90
2017-05-01T13:10:50.665Z,77.10
2017-05-01T13:13:19.053Z,75.20
2017-05-01T13:15:48.101Z,76.30
2017-05-01T13:18:16.406Z,75.10
2017-05-01T13:20:44.767Z,78.60
2017-05-01T13:23:13.817Z,78.00
2017-05-01T13:25:42.124Z,77.60
2017-05-01T13:28:10.492Z,75.60
2017-05-01T13:30:38.792Z,76.00
2017-05-01T13:33:07.112Z,76.60
2017-05-01T13:35:35.654Z,73.00
2017-05-01T13:38:03.972Z,74.20
2017-05-01T13:40:32.297Z,74.70
2017-05-01T13:43:00.716Z,74.20
2017-05-01T13:45:29.028Z,74.10
2017-05-01T13:47:57.338Z,73.00
2017-05-01T13:50:25.696Z,71.80
2017-05-01T13:52:54.005Z,71.20
2017-05-01T13:55:22.313Z,72.90
2017-05-01T13:57:50.821Z,71.70
2017-05-01T14:00:19.864Z,74.10
2017-05-01T14:02:48.165Z,72.30
2017-05-01T14:05:17.851Z,73.50
2017-05-01T14:07:46.901Z,75.90
2017-05-01T14:10:15.400Z,74.70
2017-05-01T14:12:44.488Z,75.00
2017-05-01T14:15:12.799Z,75.90
2017-05-01T14:17:41.109Z,75.40
2017-05-01T14:20:09.460Z,75.10
2017-05-01T14:22:38.512Z,76.50
2017-05-01T14:25:06.824Z,77.60
2017-05-01T14:27:35.185Z,78.10
2017-05-01T14:30:03.541Z,78.60
2017-05-01T14:32:31.857Z,75.40
2017-05-01T14:35:00.212Z,73.60
2017-05-01T14:37:28.517Z,76.30
2017-05-01T14:39:57.569Z,75.50
2017-05-01T14:42:25.932Z,75.90
2017-05-01T14:44:54.241Z,76.50
2017-05-01T14:47:22.551Z,76.90
2017-05-01T14:49:50.920Z,76.00
2017-05-01T14:52:19.225Z,76.30
2017-05-01T14:54:47.532Z,76.30
2017-05-01T14:57:16.264Z,75.40
2017-05-01T14:59:44.568Z,75.70
2017-05-01T15:02:12.868Z,76.00
2017-05-01T15:04:41.961Z,76.70
2017-05-01T15:07:10.273Z,76.90
2017-05-01T15:09:38.577Z,76.10
2017-05-01T15:12:07.680Z,77.20
2017-05-01T15:14:35.988Z,77.90
2017-05-01T15:17:04.313Z,78.90
2017-05-01T15:19:32.945Z,77.60
2017-05-01T15:22:01.260Z,77.70
2017-05-01T15:24:29.581Z,77.70
2017-05-01T15:26:58.286Z,77.60
2017-05-01T15:29:26.594Z,79.30
2017-05-01T15:31:54.900Z,80.20
2017-05-01T15:34:22.765Z,80.20
2017-05-01T15:36:51.069Z,78.10
2017-05-01T15:39:19.373Z,78.30
2017-05-01T15:41:48.013Z,78.20
2017-05-01T15:44:17.060Z,77.50
2017-05-01T15:46:45.364Z,77.40
2017-05-01T15:49:14.741Z,76.50
2017-05-01T15:51:43.785Z,77.30
2017-05-01T15:54:12.093Z,77.60
2017-05-01T15:56:40.453Z,78.60
2017-05-01T15:59:09.501Z,78.80
2017-05-01T16:01:37.812Z,77.30
2017-05-01T16:04:06.164Z,79.30
2017-05-01T16:06:34.477Z,79.00
2017-05-01T16:09:02.797Z,79.30
2017-05-01T16:11:31.288Z,78.50
2017-05-01T16:13:59.601Z,80.30
2017-05-01T16:16:28.648Z,78.90
2017-05-01T16:18:57.005Z,79.80
2017-05-01T16:21:25.308Z,80.40
2017-05-01T16:23:53.612Z,81.00
2017-05-01T16:26:21.980Z,80.50
2017-05-01T16:28:50.411Z,79.80
2017-05-01T16:31:18.761Z,79.20
2017-05-01T16:33:47.852Z,79.10
2017-05-01T16:36:16.157Z,78.40
2017-05-01T16:38:44.461Z,79.70
2017-05-01T16:41:13.773Z,79.70
2017-05-01T16:43:42.080Z,80.20
2017-05-01T16:46:10.381Z,81.40
2017-05-01T16:48:39.473Z,81.00
2017-05-01T16:51:07.780Z,81.20
2017-05-01T16:53:36.094Z,81.10
2017-05-01T16:56:04.545Z,80.40
2017-05-01T16:58:33.592Z,80.20
2017-05-01T17:01:01.904Z,81.00
2017-05-01T17:03:30.357Z,80.80
2017-05-01T17:05:59.429Z,80.90
2017-05-01T17:08:28.512Z,81.20
2017-05-01T17:10:57.604Z,81.30
2017-05-01T17:13:25.913Z,81.10
2017-05-01T17:15:54.224Z,81.10
2017-05-01T17:18:23.323Z,81.20
2017-05-01T17:20:51.660Z,81.30
2017-05-01T17:23:20.748Z,82.00
2017-05-01T17:25:49.414Z,81.90
2017-05-01T17:28:18.489Z,82.50
2017-05-01T17:30:47.637Z,83.00
2017-05-01T17:33:16.340Z,83.10
2017-05-01T17:35:45.384Z,83.30
2017-05-01T17:38:13.790Z,81.80
2017-05-01T17:40:43.173Z,82.30
2017-05-01T17:43:12.220Z,83.70
2017-05-01T17:45:40.612Z,83.60
2017-05-01T17:48:09.740Z,83.80
2017-05-01T17:50:38.070Z,83.80
2017-05-01T17:53:07.076Z,83.40
2017-05-01T17:55:35.440Z,82.90
2017-05-01T17:58:03.762Z,83.80
2017-05-01T18:00:32.826Z,82.40
2017-05-01T18:03:01.181Z,83.00
2017-05-01T18:05:29.484Z,81.80
2017-05-01T18:07:57.785Z,82.50
2017-05-01T18:10:26.141Z,82.40
2017-05-01T18:12:54.449Z,82.20
2017-05-01T18:15:23.496Z,82.10
2017-05-01T18:17:51.905Z,82.40
2017-05-01T18:20:20.212Z,84.10
2017-05-01T18:22:48.620Z,83.20
2017-05-01T18:25:17.716Z,82.90
2017-05-01T18:27:46.764Z,83.60
2017-05-01T18:30:15.068Z,82.70
2017-05-01T18:32:43.446Z,82.50
2017-05-01T18:35:11.753Z,81.40
2017-05-01T18:37:40.133Z,81.10
2017-05-01T18:40:09.227Z,80.40
2017-05-01T18:42:37.540Z,81.00
2017-05-01T18:45:05.951Z,80.90
2017-05-01T18:47:34.826Z,81.00
2017-05-01T18:50:03.136Z,81.30
2017-05-01T18:52:31.440Z,80.80
2017-05-01T18:55:00.812Z,80.90
2017-05-01T18:57:29.113Z,81.10
2017-05-01T18:59:57.421Z,81.00
2017-05-01T19:02:25.772Z,81.80
2017-05-01T19:04:54.073Z,81.80
2017-05-01T19:07:22.386Z,79.60
2017-05-01T19:09:51.121Z,79.60
2017-05-01T19:12:19.428Z,79.50
2017-05-01T19:14:47.832Z,79.50
2017-05-01T19:17:17.020Z,79.70
2017-05-01T19:19:46.128Z,80.20
2017-05-01T19:22:14.438Z,80.90
2017-05-01T19:24:43.005Z,81.20
2017-05-01T19:27:11.308Z,80.90
2017-05-01T19:29:39.612Z,82.50
2017-05-01T19:32:07.972Z,82.50
2017-05-01T19:34:36.291Z,82.70
2017-05-01T19:37:04.612Z,82.70
2017-05-01T19:39:33.317Z,82.90
2017-05-01T19:42:02.773Z,82.90
2017-05-01T19:44:31.112Z,82.90
2017-05-01T19:46:59.460Z,83.20
2017-05-01T19:49:27.805Z,82.90
2017-05-01T19:51:56.113Z,83.30
2017-05-01T19:54:24.725Z,82.20
2017-05-01T19:56:53.769Z,82.90
2017-05-01T19:59:22.077Z,83.30
2017-05-01T20:01:50.738Z,82.20
2017-05-01T20:04:19.050Z,83.00
2017-05-01T20:06:47.353Z,82.70
2017-05-01T20:09:16.440Z,81.90
2017-05-01T20:11:45.485Z,82.30
2017-05-01T20:14:13.800Z,82.60
2017-05-01T20:16:42.152Z,82.20
2017-05-01T20:19:10.456Z,80.80
2017-05-01T20:21:38.864Z,80.20
2017-05-01T20:24:07.219Z,80.80
2017-05-01T20:26:35.533Z,80.90
2017-05-01T20:29:03.840Z,80.70
2017-05-01T20:31:32.217Z,80.30
2017-05-01T20:34:01.261Z,82.50
2017-05-01T20:36:29.700Z,82.80
2017-05-01T20:38:58.536Z,83.00
2017-05-01T20:41:27.604Z,83.00
2017-05-01T20:43:55.925Z,83.10
2017-05-01T20:46:24.319Z,83.20
2017-05-01T20:48:52.632Z,83.40
2017-05-01T20:51:21.072Z,83.30
2017-05-01T20:53:50.668Z,83.40
2017-05-01T20:56:18.988Z,83.50
2017-05-01T20:58:47.299Z,83.50
2017-05-01T21:01:15.652Z,83.70
2017-05-01T21:03:44.705Z,83.70
2017-05-01T21:06:13.028Z,83.80
2017-05-01T21:08:41.865Z,83.80
2017-05-01T21:11:10.176Z,84.10
2017-05-01T21:13:38.496Z,83.90
2017-05-01T21:16:07.173Z,84.30
2017-05-01T21:18:35.489Z,84.00
2017-05-01T21:21:03.818Z,83.50
2017-05-01T21:23:32.301Z,83.50
2017-05-01T21:26:00.622Z,83.60
2017-05-01T21:28:29.672Z,83.40
2017-05-01T21:30:57.651Z,83.40
2017-05-01T21:33:26.704Z,83.30
2017-05-01T21:35:55.016Z,83.40
2017-05-01T21:38:23.765Z,83.60
2017-05-01T21:40:52.820Z,83.70
2017-05-01T21:43:21.138Z,83.60
2017-05-01T21:45:49.728Z,83.50
2017-05-01T21:48:18.252Z,83.70
2017-05-01T21:50:46.566Z,83.60
2017-05-01T21:53:15.064Z,83.90
2017-05-01T21:55:44.152Z,83.90
2017-05-01T21:58:13.205Z,83.90
2017-05-01T22:00:41.860Z,83.80
2017-05-01T22:03:10.170Z,83.90
2017-05-01T22:05:38.488Z,84.00
2017-05-01T22:08:06.858Z,84.00
2017-05-01T22:10:35.172Z,84.10
2017-05-01T22:13:03.490Z,84.30
2017-05-01T22:15:31.908Z,84.10
2017-05-01T22:18:00.258Z,84.20
2017-05-01T22:20:28.560Z,84.80
2017-05-01T22:22:56.928Z,84.00
2017-05-01T22:25:25.325Z,84.00
2017-05-01T22:27:54.383Z,83.60
2017-05-01T22:30:22.749Z,83.50
2017-05-01T22:32:51.064Z,83.50
2017-05-01T22:35:19.380Z,83.60
2017-05-01T22:37:47.740Z,83.20
2017-05-01T22:40:16.053Z,83.70
2017-05-01T22:42:44.381Z,83.70
2017-05-01T22:45:13.476Z,83.80
2017-05-01T22:47:41.825Z,83.80
2017-05-01T22:50:10.900Z,83.70
2017-05-01T22:52:39.996Z,83.90
2017-05-01T22:55:08.323Z,84.00
2017-05-01T22:57:36.640Z,83.90
2017-05-01T23:00:05.009Z,84.00
2017-05-01T23:02:33.324Z,84.20
2017-05-01T23:05:02.392Z,85.10
2017-05-01T23:07:30.753Z,84.20
2017-05-01T23:09:59.133Z,84.00
2017-05-01T23:12:28.194Z,84.20
2017-05-01T23:14:56.577Z,84.00
2017-05-01T23:17:25.638Z,84.30
2017-05-01T23:19:53.951Z,84.30
2017-05-01T23:22:22.313Z,84.40
2017-05-01T23:24:50.652Z,84.50
2017-05-01T23:27:19.713Z,84.50
2017-05-01T23:29:48.070Z,84.60
2017-05-01T23:32:16.457Z,84.60
2017-05-01T23:34:45.514Z,84.60
2017-05-01T23:37:13.872Z,84.50
2017-05-01T23:39:42.180Z,84.70
2017-05-01T23:42:10.488Z,84.60
2017-05-01T23:44:39.196Z,84.80
2017-05-01T23:47:08.253Z,84.90
2017-05-01T23:49:36.571Z,84.60
2017-05-01T23:52:04.960Z,84.00
2017-05-01T23:54:33.272Z,84.00
2017-05-01T23:57:02.351Z,84.40
2017-05-01T23:59:30.712Z,85.10
